Time;durP1;ratioP1;P1;durP2;ratioP2;P2;SDS_P1;SDS_P2;PMS_P1;PMS_P2;Temp;Humidity;BMP_temperature;BMP_pressure;BME280_temperature;BME280_humidity;BME280_pressure;Samples;Min_cycle;Max_cycle;Signal;HPM_P1;HPM_P2
2021/09/20 00:00:22;;;;;;;79.77;74.40;;;;;;;9.90;66.17;102183.75;5048217;28;20461;-68
2021/09/20 00:02:50;;;;;;;71.17;66.30;;;;;;;7.81;65.45;101851.06;5033264;28;20460;-68
2021/09/20 00:05:18;;;;;;;65.13;60.60;;;;;;;9.83;65.63;102188.50;5023235;28;20518;-67
2021/09/20 00:07:47;;;;;;;66.67;62.10;;;;;;;9.68;65.66;102158.75;5025256;28;20459;-68
2021/09/20 00:10:16;;;;;;;71.60;66.73;;;;;;;9.87;65.40;102189.25;5027559;28;20549;-68
2021/09/20 00:12:44;;;;;;;72.43;67.23;;;;;;;9.82;65.26;102196.63;5033247;28;20454;-68
2021/09/20 00:15:13;;;;;;;410.23;208.17;;;;;;;9.78;64.91;102198.53;5032846;28;20450;-69
2021/09/20 00:17:41;;;;;;;571.17;290.60;;;;;;;9.64;65.60;102179.44;5032235;28;20466;-68
2021/09/20 00:20:12;;;;;;;584.73;306.57;;;;;;;9.81;65.48;102200.25;5032526;28;20479;-68
2021/09/20 00:22:40;;;;;;;613.63;337.70;;;;;;;9.83;65.45;102184.94;5032712;28;20452;-68
2021/09/20 00:25:12;;;;;;;603.20;339.57;;;;;;;9.58;65.65;102142.16;5032598;28;20463;-68
2021/09/20 00:27:40;;;;;;;612.50;353.07;;;;;;;9.89;66.97;102198.09;5032825;28;20453;-68
2021/09/20 00:30:09;;;;;;;614.67;355.33;;;;;;;9.81;66.71;102202.91;5032205;28;20457;-68
2021/09/20 00:32:38;;;;;;;602.80;341.97;;;;;;;9.78;65.96;102203.88;5032715;28;20440;-68
2021/09/20 00:35:07;;;;;;;610.63;355.43;;;;;;;9.90;66.28;102208.78;5032662;28;20496;-68
2021/09/20 00:37:36;;;;;;;625.83;382.43;;;;;;;9.94;66.25;102212.19;5032421;28;20433;-67
2021/09/20 00:40:06;;;;;;;625.13;370.53;;;;;;;10.01;66.16;102205.63;5032258;28;20944;-69
2021/09/20 00:42:36;;;;;;;615.80;355.57;;;;;;;10.07;66.24;102191.94;5032221;28;20937;-68
2021/09/20 00:45:05;;;;;;;628.03;384.40;;;;;;;10.04;66.26;102194.75;5047498;28;20502;-68
2021/09/20 00:47:33;;;;;;;632.30;394.63;;;;;;;9.87;66.49;102181.19;5030272;28;20480;-68
2021/09/20 00:50:02;;;;;;;621.03;371.97;;;;;;;9.91;66.99;102183.69;5032142;28;20615;-67
2021/09/20 00:52:30;;;;;;;618.93;357.70;;;;;;;10.10;67.12;102199.00;5032290;28;20479;-68
2021/09/20 00:54:58;;;;;;;617.53;363.13;;;;;;;10.16;66.49;102188.91;5032297;28;20444;-69
2021/09/20 00:57:26;;;;;;;640.83;400.77;;;;;;;10.19;66.20;102185.19;5032072;28;20456;-68
2021/09/20 00:59:56;;;;;;;620.73;365.23;;;;;;;10.08;66.08;102169.53;5031990;28;20432;-68
2021/09/20 01:02:24;;;;;;;617.57;362.30;;;;;;;10.12;66.36;102187.28;5049718;28;20454;-67
2021/09/20 01:04:52;;;;;;;620.40;368.30;;;;;;;10.08;66.44;102188.31;5033365;28;21142;-68
2021/09/20 01:07:20;;;;;;;621.53;364.33;;;;;;;10.06;66.62;102166.03;5029740;28;20500;-68
2021/09/20 01:09:49;;;;;;;620.60;374.03;;;;;;;10.09;67.10;102190.06;5030170;28;20449;-68
2021/09/20 01:12:17;;;;;;;624.87;375.50;;;;;;;9.94;66.86;102196.97;5036480;28;20622;-68
2021/09/20 01:14:45;;;;;;;619.57;365.40;;;;;;;9.90;67.21;102197.16;5027925;28;20517;-68
2021/09/20 01:17:14;;;;;;;631.73;386.47;;;;;;;9.83;67.66;102195.69;5029679;28;20883;-68
2021/09/20 01:19:43;;;;;;;634.73;381.10;;;;;;;9.76;68.25;102183.44;5021853;28;20543;-67
2021/09/20 01:22:14;;;;;;;630.97;379.23;;;;;;;9.77;68.47;102186.06;5020489;28;20427;-68
2021/09/20 01:24:45;;;;;;;624.50;365.57;;;;;;;9.73;68.47;102184.44;5018625;28;20458;-69
2021/09/20 01:27:15;;;;;;;632.73;364.23;;;;;;;9.72;68.76;102187.19;5036084;28;20442;-68
2021/09/20 01:29:43;;;;;;;629.97;369.77;;;;;;;9.61;68.91;102175.09;5020875;28;20440;-68
2021/09/20 01:32:12;;;;;;;629.83;375.40;;;;;;;9.33;69.15;102136.91;5019198;28;20447;-69
2021/09/20 01:34:40;;;;;;;623.27;369.27;;;;;;;9.50;68.83;102165.75;5020292;28;20446;-69
2021/09/20 01:37:08;;;;;;;626.73;364.53;;;;;;;9.54;69.26;102186.13;5027660;28;20507;-69
2021/09/20 01:39:37;;;;;;;618.57;361.00;;;;;;;9.48;69.32;102183.66;5021678;28;20450;-69
2021/09/20 01:42:08;;;;;;;623.80;358.03;;;;;;;9.49;69.09;102183.66;5022971;28;20445;-68
2021/09/20 01:44:37;;;;;;;623.83;353.57;;;;;;;9.41;69.28;102175.00;5016523;28;20474;-68
2021/09/20 01:47:06;;;;;;;625.27;361.57;;;;;;;9.40;69.53;102173.25;5027299;28;20452;-69
2021/09/20 01:49:34;;;;;;;621.70;356.27;;;;;;;9.48;69.23;102171.13;5018943;28;20454;-69
2021/09/20 01:52:02;;;;;;;624.43;350.67;;;;;;;9.22;69.42;102128.44;5039568;28;21032;-69
2021/09/20 01:54:30;;;;;;;625.60;348.43;;;;;;;9.18;69.34;102142.88;5022183;28;20509;-68
2021/09/20 01:56:58;;;;;;;616.57;347.50;;;;;;;9.41;68.97;102183.06;5029075;28;21156;-68
2021/09/20 01:59:28;;;;;;;606.17;337.90;;;;;;;9.17;69.18;102143.81;5023779;28;20456;-67
2021/09/20 02:01:56;;;;;;;611.67;343.33;;;;;;;8.66;69.25;102053.84;5024219;28;20477;-67
2021/09/20 02:04:25;;;;;;;607.00;342.90;;;;;;;9.38;68.66;102145.63;5026262;28;20478;-68
2021/09/20 02:06:53;;;;;;;617.30;358.40;;;;;;;9.49;68.49;102167.56;5017563;28;20425;-68
2021/09/20 02:09:21;;;;;;;723.23;411.77;;;;;;;9.40;68.91;102173.25;5027781;28;20436;-68
2021/09/20 02:11:49;;;;;;;599.10;329.30;;;;;;;9.42;68.84;102179.44;5016281;28;20531;-68
2021/09/20 02:14:17;;;;;;;600.67;337.33;;;;;;;9.44;69.09;102174.00;5016925;28;20926;-68
2021/09/20 02:16:47;;;;;;;596.33;316.70;;;;;;;9.41;68.81;102174.13;5020620;28;20478;-68
2021/09/20 02:19:15;;;;;;;586.43;305.97;;;;;;;9.41;68.30;102169.66;5019055;28;20456;-68
2021/09/20 02:21:43;;;;;;;526.07;193.97;;;;;;;9.44;68.66;102156.13;5022286;28;20458;-68
2021/09/20 02:24:11;;;;;;;264.90;109.13;;;;;;;9.49;68.28;102153.25;5019367;28;20505;-68
2021/09/20 02:26:39;;;;;;;62.93;58.57;;;;;;;9.55;68.15;102153.88;5021268;28;20500;-68
2021/09/20 02:29:07;;;;;;;59.37;55.17;;;;;;;8.94;68.51;102110.75;5019006;28;20430;-69
2021/09/20 02:31:35;;;;;;;61.87;57.30;;;;;;;9.12;68.33;102102.91;5024288;28;21255;-68
2021/09/20 02:34:05;;;;;;;50.73;47.20;;;;;;;9.54;68.15;102136.06;5027105;28;20440;-69
2021/09/20 02:36:33;;;;;;;50.40;46.83;;;;;;;9.38;68.29;102110.78;5015631;28;20454;-69
2021/09/20 02:39:02;;;;;;;51.00;47.37;;;;;;;9.62;67.63;102144.66;5022711;28;20500;-69
2021/09/20 02:41:30;;;;;;;28.73;26.63;;;;;;;9.58;67.80;102140.34;5020200;28;20456;-68
2021/09/20 02:43:58;;;;;;;234.80;62.17;;;;;;;9.26;67.86;102081.81;5022620;28;20956;-67
2021/09/20 02:46:26;;;;;;;216.17;59.80;;;;;;;9.53;67.98;102142.34;5022822;28;20459;-71
2021/09/20 02:48:54;;;;;;;149.77;55.43;;;;;;;9.49;67.38;102147.88;5039107;28;20475;-68
2021/09/20 02:51:24;;;;;;;60.90;56.37;;;;;;;9.38;67.58;102145.63;5015206;28;20462;-68
2021/09/20 02:53:52;;;;;;;61.43;57.07;;;;;;;9.36;67.85;102131.44;5019378;28;20478;-67
2021/09/20 02:56:20;;;;;;;54.87;50.93;;;;;;;9.36;67.85;102142.16;5027443;28;20459;-68
2021/09/20 02:58:48;;;;;;;220.87;57.97;;;;;;;9.40;67.64;102141.09;5026641;28;20465;-67
2021/09/20 03:01:16;;;;;;;202.07;58.47;;;;;;;9.22;67.63;102142.72;5026505;28;20489;-68
2021/09/20 03:03:45;;;;;;;199.23;57.27;;;;;;;9.29;68.00;102154.06;5019897;28;20451;-67
2021/09/20 03:06:13;;;;;;;200.73;55.50;;;;;;;9.22;68.01;102141.84;5026574;28;20264;-67
2021/09/20 03:08:42;;;;;;;58.40;53.53;;;;;;;9.27;68.02;102156.81;5028154;28;20463;-67
2021/09/20 03:11:11;;;;;;;79.70;74.43;;;;;;;8.89;68.66;102104.72;5027126;28;20468;-67
2021/09/20 03:13:39;;;;;;;77.30;72.17;;;;;;;9.29;68.33;102162.09;5029219;28;20489;-67
2021/09/20 03:16:07;;;;;;;64.70;60.27;;;;;;;9.27;68.49;102158.63;5029452;28;20446;-67
2021/09/20 03:18:35;;;;;;;54.03;50.27;;;;;;;8.99;68.94;102115.94;5018890;28;20527;-68
2021/09/20 03:21:03;;;;;;;61.73;57.50;;;;;;;9.16;69.13;102148.28;5028659;28;20457;-68
2021/09/20 03:23:31;;;;;;;61.67;57.43;;;;;;;9.21;69.16;102158.84;5044070;28;20465;-68
2021/09/20 03:26:00;;;;;;;42.03;38.97;;;;;;;9.18;68.87;102169.66;5028986;28;21087;-68
2021/09/20 03:28:29;;;;;;;52.83;49.03;;;;;;;9.19;69.04;102168.78;5028995;28;20463;-68
2021/09/20 03:30:57;;;;;;;82.47;76.93;;;;;;;8.84;68.79;102101.31;5024771;28;20616;-68
2021/09/20 03:33:25;;;;;;;72.43;67.53;;;;;;;9.19;69.05;102150.88;5026672;28;21033;-68
2021/09/20 03:35:53;;;;;;;63.27;58.93;;;;;;;9.20;68.96;102166.03;5028095;28;20476;-68
2021/09/20 03:38:21;;;;;;;64.43;60.07;;;;;;;9.22;69.01;102165.97;5027707;28;20805;-68
2021/09/20 03:40:49;;;;;;;66.97;62.43;;;;;;;9.21;69.06;102169.59;5043359;28;20461;-68
2021/09/20 03:43:19;;;;;;;59.83;55.67;;;;;;;9.23;68.78;102165.91;5044259;28;20777;-69
2021/09/20 03:45:47;;;;;;;107.97;64.43;;;;;;;9.20;68.58;102163.34;5028945;28;20817;-68
2021/09/20 03:48:15;;;;;;;62.03;57.70;;;;;;;9.20;68.49;102162.47;5026825;28;20466;-68
2021/09/20 03:50:43;;;;;;;59.00;54.93;;;;;;;9.19;68.58;102155.38;5028200;28;21041;-68
2021/09/20 03:53:11;;;;;;;58.50;54.43;;;;;;;9.20;68.43;102152.63;5027754;28;20496;-69
2021/09/20 03:55:39;;;;;;;57.00;53.07;;;;;;;8.94;68.12;102132.19;5044044;28;20453;-67
2021/09/20 03:58:07;;;;;;;47.47;44.27;;;;;;;9.20;67.65;102163.34;5025738;28;20938;-69
2021/09/20 04:00:37;;;;;;;53.27;49.53;;;;;;;9.23;68.31;102157.88;5020702;28;20470;-69
2021/09/20 04:03:05;;;;;;;73.97;69.03;;;;;;;9.25;67.81;102166.72;5028129;28;21210;-69
2021/09/20 04:05:33;;;;;;;75.40;70.37;;;;;;;8.60;67.72;102067.47;5028394;28;20454;-67
2021/09/20 04:08:01;;;;;;;86.20;80.53;;;;;;;9.18;66.99;102142.88;5028399;28;20836;-69
2021/09/20 04:10:29;;;;;;;87.90;82.10;;;;;;;9.37;66.79;102173.38;5029108;28;20445;-69
2021/09/20 04:12:57;;;;;;;55.63;51.77;;;;;;;9.27;66.32;102158.63;5028909;28;20506;-68
2021/09/20 04:15:30;;;;;;;65.73;61.27;;;;;;;9.40;66.18;102170.59;5028719;28;20472;-68
2021/09/20 04:17:59;;;;;;;66.53;61.97;;;;;;;9.39;66.43;102173.31;5029128;28;20965;-68
2021/09/20 04:20:27;;;;;;;87.30;81.60;;;;;;;9.00;66.32;102123.91;5027131;28;20489;-68
2021/09/20 04:22:55;;;;;;;54.07;50.30;;;;;;;9.39;66.48;102179.56;5020302;28;20474;-68
2021/09/20 04:25:23;;;;;;;88.93;83.17;;;;;;;9.41;66.60;102174.13;5030901;28;20461;-68
2021/09/20 04:27:51;;;;;;;92.93;86.90;;;;;;;9.09;65.87;102114.63;5031097;28;20608;-68
2021/09/20 04:30:19;;;;;;;78.83;73.57;;;;;;;9.16;66.23;102123.28;5030851;28;20985;-68
2021/09/20 04:32:47;;;;;;;60.57;56.40;;;;;;;8.99;66.76;102110.59;5025673;28;20508;-68
2021/09/20 04:35:17;;;;;;;50.00;46.50;;;;;;;9.24;66.35;102173.00;5028074;28;20892;-68
2021/09/20 04:37:45;;;;;;;79.13;73.93;;;;;;;9.31;66.38;102176.31;5028440;28;20459;-69
2021/09/20 04:40:13;;;;;;;49.77;46.27;;;;;;;9.25;66.04;102181.94;5028953;28;20920;-69
2021/09/20 04:42:41;;;;;;;54.90;51.10;;;;;;;9.26;66.44;102173.81;5028942;28;20455;-67
2021/09/20 04:45:10;;;;;;;56.07;52.03;;;;;;;9.12;66.37;102157.38;5045889;28;20561;-69
2021/09/20 04:47:38;;;;;;;69.83;65.10;;;;;;;9.07;66.33;102172.78;5029666;28;20922;-68
2021/09/20 04:50:08;;;;;;;58.80;54.73;;;;;;;9.25;66.42;102193.53;5030364;28;20278;-68
2021/09/20 04:52:37;;;;;;;72.43;67.57;;;;;;;9.30;66.44;102196.00;5030442;28;20532;-68
2021/09/20 04:55:06;;;;;;;52.77;49.10;;;;;;;9.21;66.71;102185.66;5030924;28;20458;-68
2021/09/20 04:57:34;;;;;;;56.30;52.30;;;;;;;9.19;67.17;102184.84;5029050;28;20950;-68
2021/09/20 05:00:05;;;;;;;68.47;63.87;;;;;;;9.15;66.76;102192.09;5029403;28;20459;-68
2021/09/20 05:02:33;;;;;;;68.63;63.97;;;;;;;9.09;67.53;102192.34;5029843;28;20490;-68
2021/09/20 05:05:01;;;;;;;59.87;55.70;;;;;;;9.09;67.25;102195.03;5029934;28;20873;-68
2021/09/20 05:07:29;;;;;;;66.43;61.87;;;;;;;9.12;67.41;102199.41;5029004;28;20452;-68
2021/09/20 05:09:59;;;;;;;63.13;58.83;;;;;;;8.88;67.43;102150.31;5027378;28;20527;-68
2021/09/20 05:12:31;;;;;;;69.57;64.90;;;;;;;9.14;67.24;102197.53;5028190;28;20452;-68
2021/09/20 05:14:59;;;;;;;63.20;58.87;;;;;;;9.19;67.24;102198.25;5026606;28;20853;-69
2021/09/20 05:17:27;;;;;;;62.40;58.13;;;;;;;9.19;67.01;102187.53;5041516;28;20533;-68
2021/09/20 05:19:55;;;;;;;45.27;42.13;;;;;;;9.03;67.40;102157.75;5042461;28;20494;-68
2021/09/20 05:22:23;;;;;;;38.77;34.83;;;;;;;9.10;67.54;102166.44;5027331;28;20867;-68
2021/09/20 05:24:51;;;;;;;118.33;54.20;;;;;;;9.12;67.47;102191.34;5028737;28;20942;-69
2021/09/20 05:27:20;;;;;;;195.03;60.13;;;;;;;9.05;67.60;102198.75;5028809;28;20513;-68
2021/09/20 05:29:48;;;;;;;179.90;57.37;;;;;;;8.91;68.08;102182.34;5029133;28;20935;-68
2021/09/20 05:32:16;;;;;;;218.07;77.73;;;;;;;9.11;68.32;102198.53;5028929;28;20444;-69
2021/09/20 05:34:44;;;;;;;234.53;62.23;;;;;;;9.08;67.84;102189.72;5029006;28;20479;-70
2021/09/20 05:37:13;;;;;;;54.00;48.07;;;;;;;9.05;68.21;102185.34;5029886;28;20422;-69
2021/09/20 05:39:41;;;;;;;55.83;51.27;;;;;;;9.18;67.94;102191.09;5031821;28;20454;-69
2021/09/20 05:42:09;;;;;;;52.20;48.57;;;;;;;9.16;67.99;102190.31;5054453;28;20459;-70
2021/09/20 05:44:38;;;;;;;54.07;50.33;;;;;;;9.12;68.58;102199.41;5042923;28;20447;-69
2021/09/20 05:47:06;;;;;;;63.10;58.83;;;;;;;9.16;68.92;102198.34;5037637;28;20509;-69
2021/09/20 05:49:34;;;;;;;52.70;49.10;;;;;;;9.18;68.73;102196.47;5042524;28;20447;-69
2021/09/20 05:52:03;;;;;;;47.67;44.33;;;;;;;9.28;68.26;102196.06;5029633;28;20507;-70
2021/09/20 05:54:31;;;;;;;38.67;35.87;;;;;;;9.34;68.88;102197.63;5028355;28;21027;-70
2021/09/20 05:56:59;;;;;;;43.20;40.13;;;;;;;9.35;68.27;102204.75;5029776;28;20451;-69
2021/09/20 05:59:27;;;;;;;46.97;43.50;;;;;;;9.22;68.34;102188.28;5029319;28;20447;-68
2021/09/20 06:01:57;;;;;;;59.30;55.27;;;;;;;9.28;68.04;102193.41;5029485;28;20537;-68
2021/09/20 06:04:25;;;;;;;59.90;55.83;;;;;;;9.25;68.56;102198.00;5027309;28;20463;-68
2021/09/20 06:06:54;;;;;;;57.03;53.17;;;;;;;9.27;69.00;102217.59;5025239;28;20836;-67
2021/09/20 06:09:22;;;;;;;62.53;58.27;;;;;;;9.34;69.02;102200.31;5042714;28;20456;-68
2021/09/20 06:11:50;;;;;;;71.07;66.30;;;;;;;9.46;67.85;102197.16;5027948;28;20478;-68
2021/09/20 06:14:19;;;;;;;79.30;74.03;;;;;;;9.41;68.58;102200.94;5042489;28;20479;-68
2021/09/20 06:16:47;;;;;;;72.77;67.87;;;;;;;9.43;68.27;102199.94;5027874;28;20989;-68
2021/09/20 06:19:16;;;;;;;63.80;59.37;;;;;;;9.40;67.89;102205.44;5027145;28;20479;-68
2021/09/20 06:21:44;;;;;;;67.20;62.67;;;;;;;9.09;68.45;102168.22;5043289;28;20868;-70
2021/09/20 06:24:13;;;;;;;56.37;52.50;;;;;;;8.91;68.78;102129.63;5028412;28;20631;-69
2021/09/20 06:26:41;;;;;;;55.40;51.53;;;;;;;9.31;68.82;102208.47;5028932;28;20794;-68
2021/09/20 06:29:11;;;;;;;67.53;62.93;;;;;;;9.25;69.20;102208.72;5028967;28;21020;-68
2021/09/20 06:31:39;;;;;;;54.37;50.60;;;;;;;9.20;69.11;102205.34;5029003;28;20521;-68
2021/09/20 06:34:08;;;;;;;49.70;46.23;;;;;;;9.43;69.04;102207.13;5028742;28;21024;-68
2021/09/20 06:36:39;;;;;;;72.87;68.00;;;;;;;9.21;68.89;102177.63;5029182;28;20440;-69
2021/09/20 06:39:08;;;;;;;78.67;73.43;;;;;;;9.36;69.01;102214.53;5028735;28;20458;-69
2021/09/20 06:41:36;;;;;;;63.17;58.87;;;;;;;9.27;68.96;102217.59;5028770;28;20304;-69
2021/09/20 06:44:05;;;;;;;53.90;50.17;;;;;;;9.01;69.09;102163.19;5028112;28;20435;-69
2021/09/20 06:46:35;;;;;;;57.57;53.60;;;;;;;9.15;69.01;102167.13;5028360;28;20516;-68
2021/09/20 06:49:04;;;;;;;62.47;58.20;;;;;;;9.51;69.47;102222.00;5028877;28;20930;-68
2021/09/20 06:51:32;;;;;;;53.57;49.87;;;;;;;9.23;69.21;102167.72;5026749;28;20720;-69
2021/09/20 06:54:01;;;;;;;59.93;55.83;;;;;;;9.40;69.99;102208.13;5028599;28;20460;-69
2021/09/20 06:56:30;;;;;;;60.90;56.70;;;;;;;9.50;69.29;102220.25;5028165;28;20479;-68
2021/09/20 06:58:58;;;;;;;62.10;57.83;;;;;;;9.55;69.29;102217.38;5043991;28;20459;-68
2021/09/20 07:01:26;;;;;;;58.30;54.20;;;;;;;9.20;69.93;102162.47;5028048;28;20523;-68
2021/09/20 07:03:54;;;;;;;457.47;244.30;;;;;;;9.48;69.74;102207.81;5028359;28;20487;-68
2021/09/20 07:06:22;;;;;;;606.10;289.23;;;;;;;9.59;69.59;102209.16;5043234;28;20570;-68
2021/09/20 07:08:50;;;;;;;615.93;274.77;;;;;;;9.16;69.99;102144.75;5028618;28;20443;-68
2021/09/20 07:11:23;;;;;;;627.73;255.33;;;;;;;9.51;70.22;102208.59;5028358;28;20454;-68
2021/09/20 07:13:52;;;;;;;668.93;326.80;;;;;;;9.50;69.87;102206.84;5028348;28;20927;-68
2021/09/20 07:16:20;;;;;;;674.27;348.67;;;;;;;9.51;70.05;102205.91;5028313;28;20855;-68
2021/09/20 07:18:48;;;;;;;685.33;344.30;;;;;;;9.27;69.87;102172.88;5026604;28;20466;-68
2021/09/20 07:21:16;;;;;;;688.97;334.40;;;;;;;9.40;70.54;102183.97;5027933;28;20527;-68
2021/09/20 07:23:44;;;;;;;667.73;329.20;;;;;;;9.56;70.60;102211.09;5028071;28;20528;-68
2021/09/20 07:26:12;;;;;;;693.07;344.00;;;;;;;9.44;70.56;102188.28;5028424;28;20434;-68
2021/09/20 07:28:41;;;;;;;691.70;344.03;;;;;;;9.38;70.99;102177.81;5028208;28;20950;-68
2021/09/20 07:31:11;;;;;;;707.03;347.07;;;;;;;9.69;70.83;102215.00;5028054;28;20454;-68
2021/09/20 07:33:39;;;;;;;709.13;337.27;;;;;;;9.76;71.13;102212.94;5028167;28;20496;-69
2021/09/20 07:36:07;;;;;;;710.10;348.83;;;;;;;9.58;70.99;102179.72;5028187;28;20965;-69
2021/09/20 07:38:36;;;;;;;715.00;351.27;;;;;;;9.78;70.46;102205.69;5027971;28;20902;-69
2021/09/20 07:41:06;;;;;;;715.10;354.57;;;;;;;9.93;71.22;102199.72;5028265;28;20978;-69
2021/09/20 07:43:34;;;;;;;720.03;350.67;;;;;;;9.91;70.65;102210.50;5028173;28;20668;-68
2021/09/20 07:46:03;;;;;;;720.93;353.20;;;;;;;9.90;70.31;102199.84;5026547;28;20983;-69
2021/09/20 07:48:32;;;;;;;707.83;321.23;;;;;;;9.92;70.29;102206.03;5043105;28;20787;-69
2021/09/20 07:51:00;;;;;;;701.97;334.87;;;;;;;9.72;71.00;102152.31;5027977;28;20442;-68
2021/09/20 07:53:28;;;;;;;694.93;340.57;;;;;;;9.82;70.49;102159.94;5028032;28;20445;-68
2021/09/20 07:55:57;;;;;;;676.90;336.53;;;;;;;10.15;70.71;102199.69;5029465;28;20475;-68
2021/09/20 07:58:25;;;;;;;680.20;323.70;;;;;;;10.14;71.35;102200.63;5031367;28;20446;-68
2021/09/20 08:00:53;;;;;;;641.40;326.70;;;;;;;10.23;70.27;102198.47;5031935;28;20419;-68
2021/09/20 08:03:22;;;;;;;721.80;303.13;;;;;;;9.59;70.32;102092.94;5046850;28;21109;-69
2021/09/20 08:05:52;;;;;;;696.83;294.30;;;;;;;10.34;70.71;102207.84;5047013;28;20505;-69
2021/09/20 08:08:20;;;;;;;731.70;294.53;;;;;;;10.04;70.51;102151.81;5030044;28;20446;-68
2021/09/20 08:10:48;;;;;;;694.43;321.57;;;;;;;10.44;70.30;102214.59;5031683;28;20444;-69
2021/09/20 08:13:17;;;;;;;640.70;300.60;;;;;;;10.56;69.93;102219.41;5031365;28;20445;-69
2021/09/20 08:15:45;;;;;;;739.23;307.73;;;;;;;10.57;69.56;102226.53;5031603;28;20458;-70
2021/09/20 08:18:14;;;;;;;701.43;307.60;;;;;;;10.53;70.28;102198.06;5031475;28;20999;-69
2021/09/20 08:20:45;;;;;;;693.23;319.87;;;;;;;10.71;69.98;102228.59;5031519;28;20941;-69
2021/09/20 08:23:15;;;;;;;690.17;297.20;;;;;;;10.69;69.65;102207.16;5031277;28;20933;-69
2021/09/20 08:25:44;;;;;;;672.43;304.47;;;;;;;10.78;69.72;102222.03;5046516;28;20496;-68
2021/09/20 08:28:12;;;;;;;680.87;290.33;;;;;;;10.81;69.75;102224.59;5046749;28;20450;-68
2021/09/20 08:30:41;;;;;;;641.33;305.20;;;;;;;10.96;69.28;102229.25;5031421;28;20445;-69
2021/09/20 08:33:09;;;;;;;650.77;305.80;;;;;;;10.96;68.43;102234.63;5031441;28;20441;-68
2021/09/20 08:35:37;;;;;;;651.43;304.60;;;;;;;10.81;69.02;102214.69;5030946;28;20466;-68
2021/09/20 08:38:06;;;;;;;675.03;313.10;;;;;;;11.07;68.93;102239.53;5031295;28;20466;-68
2021/09/20 08:40:34;;;;;;;669.87;303.33;;;;;;;11.00;68.68;102244.28;5031067;28;20848;-68
2021/09/20 08:43:03;;;;;;;652.83;298.03;;;;;;;10.82;68.97;102231.69;5031251;28;20491;-68
2021/09/20 08:45:32;;;;;;;641.13;290.17;;;;;;;10.76;68.29;102240.91;5029497;28;20441;-68
2021/09/20 08:48:01;;;;;;;638.43;285.90;;;;;;;10.86;68.42;102236.88;5031480;28;20910;-69
2021/09/20 08:50:31;;;;;;;639.33;303.70;;;;;;;10.60;69.41;102188.78;5029472;28;20460;-69
2021/09/20 08:53:00;;;;;;;629.07;294.57;;;;;;;10.73;68.92;102195.38;5029786;28;20817;-69
2021/09/20 08:55:32;;;;;;;647.07;289.73;;;;;;;10.88;68.55;102234.97;5030685;28;20563;-69
2021/09/20 08:58:00;;;;;;;646.77;292.60;;;;;;;10.90;69.01;102229.53;5031307;28;21008;-69
2021/09/20 09:00:28;;;;;;;702.73;297.87;;;;;;;10.92;68.60;102243.78;5030706;28;20678;-69
2021/09/20 09:02:59;;;;;;;731.53;325.43;;;;;;;10.72;67.53;102200.81;5030569;28;20954;-70
2021/09/20 09:05:29;;;;;;;723.03;296.60;;;;;;;10.84;68.89;102246.81;5030621;28;20437;-69
2021/09/20 09:07:59;;;;;;;706.23;276.03;;;;;;;10.81;68.62;102251.44;5030383;28;20435;-69
2021/09/20 09:10:31;;;;;;;718.73;322.80;;;;;;;10.56;68.57;102214.91;5045601;28;20448;-69
2021/09/20 09:13:02;;;;;;;644.93;319.07;;;;;;;10.94;68.85;102241.00;5029696;28;20486;-69
2021/09/20 09:15:31;;;;;;;949.33;406.43;;;;;;;10.97;67.96;102247.13;5030467;28;20466;-69
2021/09/20 09:18:02;;;;;;;704.20;302.83;;;;;;;10.94;68.81;102243.69;5030985;28;20767;-69
2021/09/20 09:20:33;;;;;;;710.13;326.70;;;;;;;11.05;68.76;102261.13;5030070;28;20550;-69
2021/09/20 09:23:03;;;;;;;680.57;310.30;;;;;;;11.04;68.65;102237.00;5030756;28;20445;-69
2021/09/20 09:25:39;;;;;;;772.10;369.60;;;;;;;11.11;68.49;102249.19;5045355;28;20448;-70
2021/09/20 09:28:16;;;;;;;753.87;304.57;;;;;;;11.15;68.58;102246.28;5030404;28;20438;-69
2021/09/20 09:30:52;;;;;;;750.80;297.03;;;;;;;11.27;68.61;102249.34;5030218;28;20418;-70
2021/09/20 09:33:23;;;;;;;748.43;306.47;;;;;;;11.37;68.43;102243.50;5029806;28;20445;-69
2021/09/20 09:35:55;;;;;;;685.93;295.93;;;;;;;11.39;67.72;102235.34;5028587;28;20466;-70
2021/09/20 09:38:23;;;;;;;676.40;312.00;;;;;;;11.09;68.37;102192.81;5044955;28;20646;-70
2021/09/20 09:40:57;;;;;;;627.70;294.70;;;;;;;11.24;67.84;102249.50;5030016;28;20809;-69
2021/09/20 09:43:28;;;;;;;130.20;122.03;;;;;;;11.18;67.56;102256.03;5029782;28;20533;-70
2021/09/20 09:45:57;;;;;;;106.03;99.27;;;;;;;11.37;67.97;102254.25;5045134;28;20469;-69
2021/09/20 09:48:28;;;;;;;79.47;74.13;;;;;;;11.15;68.12;102246.28;5044819;28;20467;-70
2021/09/20 09:50:58;;;;;;;89.20;83.37;;;;;;;11.10;67.91;102247.44;5045143;28;20459;-69
2021/09/20 09:53:31;;;;;;;91.37;85.40;;;;;;;11.15;68.71;102235.53;5029461;28;20955;-69
2021/09/20 09:56:17;;;;;;;75.63;70.57;;;;;;;11.22;68.19;102249.56;5029890;28;20962;-69
2021/09/20 09:58:53;;;;;;;128.60;120.53;;;;;;;11.12;67.68;102240.19;5030046;28;20451;-68
2021/09/20 10:01:23;;;;;;;86.00;80.27;;;;;;;11.05;67.96;102244.09;5027787;28;20466;-68
2021/09/20 10:04:06;;;;;;;93.80;87.73;;;;;;;11.12;67.79;102261.69;5029775;28;20482;-68
2021/09/20 10:06:48;;;;;;;91.17;85.20;;;;;;;11.03;67.92;102227.19;5029166;28;20473;-68
2021/09/20 10:09:18;;;;;;;113.83;106.63;;;;;;;11.40;67.88;102246.03;5044320;28;20487;-68
2021/09/20 10:11:50;;;;;;;97.17;90.87;;;;;;;11.16;67.18;102206.84;5044496;28;20463;-69
2021/09/20 10:14:19;;;;;;;104.83;98.10;;;;;;;11.52;67.45;102249.94;5029070;28;20930;-69
2021/09/20 10:16:49;;;;;;;96.07;89.77;;;;;;;11.41;67.50;102215.50;5029151;28;20483;-68
2021/09/20 10:19:19;;;;;;;186.80;138.93;;;;;;;11.55;67.57;102227.41;5027848;28;20444;-68
2021/09/20 10:21:47;;;;;;;593.33;290.87;;;;;;;11.79;67.75;102247.78;5027664;28;20441;-68
2021/09/20 10:24:16;;;;;;;612.70;295.83;;;;;;;11.61;66.36;102213.66;5028823;28;20949;-68
2021/09/20 10:26:45;;;;;;;606.17;286.67;;;;;;;11.90;66.25;102231.97;5029061;28;20940;-68
2021/09/20 10:29:18;;;;;;;625.97;319.13;;;;;;;12.07;66.33;102234.72;5029303;28;20438;-68
2021/09/20 10:31:49;;;;;;;640.20;348.27;;;;;;;12.00;65.08;102209.06;5029092;28;20790;-68
2021/09/20 10:34:29;;;;;;;637.80;345.90;;;;;;;12.25;64.83;102232.06;5028543;28;20429;-68
2021/09/20 10:37:09;;;;;;;624.07;325.47;;;;;;;11.92;64.78;102189.69;5028798;28;20964;-69
2021/09/20 10:40:01;;;;;;;624.23;316.73;;;;;;;12.19;65.51;102235.03;5028905;28;20445;-68
2021/09/20 10:42:57;;;;;;;621.50;305.03;;;;;;;12.18;66.26;102223.38;5024960;28;20545;-67
2021/09/20 10:45:43;;;;;;;636.87;344.10;;;;;;;12.21;64.78;102223.22;5028428;28;20451;-68
2021/09/20 10:48:23;;;;;;;628.00;324.70;;;;;;;12.22;65.28;102224.97;5028983;28;20421;-68
2021/09/20 10:50:54;;;;;;;624.80;321.27;;;;;;;12.21;65.59;102215.16;5028526;28;20452;-68
2021/09/20 10:53:28;;;;;;;482.67;288.33;;;;;;;12.16;65.15;102219.03;5018307;28;20457;-68
2021/09/20 10:56:20;;;;;;;613.87;314.83;;;;;;;12.16;65.66;102217.22;5023335;28;20459;-68
2021/09/20 10:59:25;;;;;;;625.63;345.80;;;;;;;12.02;65.55;102212.53;5024262;28;20987;-69
2021/09/20 11:02:20;;;;;;;604.40;302.93;;;;;;;11.94;65.67;102193.22;5026022;28;21173;-69
2021/09/20 11:04:48;;;;;;;64.53;58.63;;;;;;;11.94;65.02;102187.81;5026191;28;20559;-68
2021/09/20 11:07:25;;;;;;;606.33;292.87;;;;;;;12.07;65.78;102198.84;5026295;28;20490;-68
2021/09/20 11:10:08;;;;;;;609.40;317.87;;;;;;;12.18;65.55;102211.75;5029156;28;20516;-68
2021/09/20 11:12:56;;;;;;;467.17;253.30;;;;;;;12.11;66.42;102198.59;5044635;28;20474;-68
2021/09/20 11:15:26;;;;;;;595.93;268.43;;;;;;;11.92;66.27;102173.53;5028762;28;20823;-68
2021/09/20 11:17:57;;;;;;;435.37;214.80;;;;;;;12.01;66.15;102183.88;5029187;28;20461;-69